sensor_id;sensor_type;location;lat;lon;timestamp;P1;durP1;ratioP1;P2;durP2;ratioP2
35835;SDS011;21955;50.580;7.228;2022-08-03T00:01:05;3.30;;;1.87;;
35835;SDS011;21955;50.580;7.228;2022-08-03T00:03:32;4.13;;;2.30;;
35835;SDS011;21955;50.580;7.228;2022-08-03T00:05:59;6.40;;;2.28;;
35835;SDS011;21955;50.580;7.228;2022-08-03T00:08:26;5.28;;;2.30;;
35835;SDS011;21955;50.580;7.228;2022-08-03T00:10:54;4.05;;;2.10;;
35835;SDS011;21955;50.580;7.228;2022-08-03T00:13:22;2.97;;;1.90;;
35835;SDS011;21955;50.580;7.228;2022-08-03T00:15:49;3.22;;;2.10;;
35835;SDS011;21955;50.580;7.228;2022-08-03T00:18:16;4.63;;;2.20;;
35835;SDS011;21955;50.580;7.228;2022-08-03T00:20:43;6.97;;;2.85;;
35835;SDS011;21955;50.580;7.228;2022-08-03T00:23:10;6.32;;;2.83;;
35835;SDS011;21955;50.580;7.228;2022-08-03T00:25:37;4.80;;;3.08;;
35835;SDS011;21955;50.580;7.228;2022-08-03T00:28:04;3.35;;;2.28;;
35835;SDS011;21955;50.580;7.228;2022-08-03T00:30:33;4.47;;;2.55;;
35835;SDS011;21955;50.580;7.228;2022-08-03T00:33:01;3.80;;;2.40;;
35835;SDS011;21955;50.580;7.228;2022-08-03T00:35:28;3.90;;;2.40;;
35835;SDS011;21955;50.580;7.228;2022-08-03T00:37:55;4.18;;;2.33;;
35835;SDS011;21955;50.580;7.228;2022-08-03T00:40:22;4.65;;;2.17;;
35835;SDS011;21955;50.580;7.228;2022-08-03T00:42:50;4.13;;;2.35;;
35835;SDS011;21955;50.580;7.228;2022-08-03T00:45:18;4.38;;;2.38;;
35835;SDS011;21955;50.580;7.228;2022-08-03T00:47:47;5.18;;;2.40;;
35835;SDS011;21955;50.580;7.228;2022-08-03T00:50:14;3.45;;;2.10;;
35835;SDS011;21955;50.580;7.228;2022-08-03T00:52:42;2.33;;;1.90;;
35835;SDS011;21955;50.580;7.228;2022-08-03T00:55:09;3.25;;;1.90;;
35835;SDS011;21955;50.580;7.228;2022-08-03T00:57:36;3.20;;;2.10;;
35835;SDS011;21955;50.580;7.228;2022-08-03T01:00:04;3.90;;;2.20;;
35835;SDS011;21955;50.580;7.228;2022-08-03T01:02:31;3.42;;;2.20;;
35835;SDS011;21955;50.580;7.228;2022-08-03T01:05:00;4.47;;;2.33;;
35835;SDS011;21955;50.580;7.228;2022-08-03T01:07:30;4.55;;;2.30;;
35835;SDS011;21955;50.580;7.228;2022-08-03T01:09:59;4.40;;;2.55;;
35835;SDS011;21955;50.580;7.228;2022-08-03T01:12:29;3.63;;;2.70;;
35835;SDS011;21955;50.580;7.228;2022-08-03T01:14:59;3.83;;;2.70;;
35835;SDS011;21955;50.580;7.228;2022-08-03T01:17:30;3.50;;;2.50;;
35835;SDS011;21955;50.580;7.228;2022-08-03T01:20:03;3.35;;;2.35;;
35835;SDS011;21955;50.580;7.228;2022-08-03T01:22:37;3.53;;;2.30;;
35835;SDS011;21955;50.580;7.228;2022-08-03T01:25:09;3.78;;;2.15;;
35835;SDS011;21955;50.580;7.228;2022-08-03T01:27:41;2.97;;;2.10;;
35835;SDS011;21955;50.580;7.228;2022-08-03T01:30:13;3.55;;;2.05;;
35835;SDS011;21955;50.580;7.228;2022-08-03T01:32:41;4.65;;;2.20;;
35835;SDS011;21955;50.580;7.228;2022-08-03T01:35:12;3.00;;;2.05;;
35835;SDS011;21955;50.580;7.228;2022-08-03T01:37:41;2.78;;;2.00;;
35835;SDS011;21955;50.580;7.228;2022-08-03T01:40:09;3.95;;;2.00;;
35835;SDS011;21955;50.580;7.228;2022-08-03T01:42:39;3.08;;;1.90;;
35835;SDS011;21955;50.580;7.228;2022-08-03T01:45:07;3.03;;;2.13;;
35835;SDS011;21955;50.580;7.228;2022-08-03T01:47:37;2.85;;;2.00;;
35835;SDS011;21955;50.580;7.228;2022-08-03T01:50:05;2.97;;;2.00;;
35835;SDS011;21955;50.580;7.228;2022-08-03T01:52:33;4.00;;;2.17;;
35835;SDS011;21955;50.580;7.228;2022-08-03T01:55:03;4.95;;;2.20;;
35835;SDS011;21955;50.580;7.228;2022-08-03T01:57:31;3.75;;;2.25;;
35835;SDS011;21955;50.580;7.228;2022-08-03T01:59:59;4.93;;;2.47;;
35835;SDS011;21955;50.580;7.228;2022-08-03T02:02:27;4.32;;;2.45;;
35835;SDS011;21955;50.580;7.228;2022-08-03T02:04:56;3.45;;;2.20;;
35835;SDS011;21955;50.580;7.228;2022-08-03T02:07:24;4.47;;;2.40;;
35835;SDS011;21955;50.580;7.228;2022-08-03T02:09:52;3.37;;;2.30;;
35835;SDS011;21955;50.580;7.228;2022-08-03T02:12:20;3.85;;;2.45;;
35835;SDS011;21955;50.580;7.228;2022-08-03T02:14:48;4.15;;;2.20;;
35835;SDS011;21955;50.580;7.228;2022-08-03T02:17:16;2.90;;;2.10;;
35835;SDS011;21955;50.580;7.228;2022-08-03T02:19:43;3.10;;;2.03;;
35835;SDS011;21955;50.580;7.228;2022-08-03T02:22:12;2.78;;;2.10;;
35835;SDS011;21955;50.580;7.228;2022-08-03T02:24:39;4.47;;;2.30;;
35835;SDS011;21955;50.580;7.228;2022-08-03T02:27:13;2.75;;;2.35;;
35835;SDS011;21955;50.580;7.228;2022-08-03T02:29:43;5.20;;;2.30;;
35835;SDS011;21955;50.580;7.228;2022-08-03T02:32:13;2.83;;;2.30;;
35835;SDS011;21955;50.580;7.228;2022-08-03T02:34:43;3.88;;;2.30;;
35835;SDS011;21955;50.580;7.228;2022-08-03T02:37:13;4.80;;;2.60;;
35835;SDS011;21955;50.580;7.228;2022-08-03T02:39:40;3.70;;;2.50;;
35835;SDS011;21955;50.580;7.228;2022-08-03T02:42:10;4.45;;;2.70;;
35835;SDS011;21955;50.580;7.228;2022-08-03T02:44:37;3.75;;;2.70;;
35835;SDS011;21955;50.580;7.228;2022-08-03T02:47:06;5.00;;;3.00;;
35835;SDS011;21955;50.580;7.228;2022-08-03T02:49:35;3.20;;;2.60;;
35835;SDS011;21955;50.580;7.228;2022-08-03T02:52:03;3.85;;;2.90;;
35835;SDS011;21955;50.580;7.228;2022-08-03T02:54:32;4.00;;;2.78;;
35835;SDS011;21955;50.580;7.228;2022-08-03T02:57:00;3.80;;;2.72;;
35835;SDS011;21955;50.580;7.228;2022-08-03T02:59:28;6.20;;;2.80;;
35835;SDS011;21955;50.580;7.228;2022-08-03T03:01:56;5.13;;;2.67;;
35835;SDS011;21955;50.580;7.228;2022-08-03T03:04:26;5.80;;;2.95;;
35835;SDS011;21955;50.580;7.228;2022-08-03T03:06:53;3.53;;;2.90;;
35835;SDS011;21955;50.580;7.228;2022-08-03T03:09:21;6.90;;;3.10;;
35835;SDS011;21955;50.580;7.228;2022-08-03T03:11:50;6.22;;;2.92;;
35835;SDS011;21955;50.580;7.228;2022-08-03T03:14:18;5.40;;;2.70;;
35835;SDS011;21955;50.580;7.228;2022-08-03T03:16:45;4.32;;;2.85;;
35835;SDS011;21955;50.580;7.228;2022-08-03T03:19:13;5.32;;;2.80;;
35835;SDS011;21955;50.580;7.228;2022-08-03T03:21:42;5.15;;;2.80;;
35835;SDS011;21955;50.580;7.228;2022-08-03T03:24:09;4.65;;;2.63;;
35835;SDS011;21955;50.580;7.228;2022-08-03T03:26:36;4.38;;;2.70;;
35835;SDS011;21955;50.580;7.228;2022-08-03T03:29:05;3.67;;;2.55;;
35835;SDS011;21955;50.580;7.228;2022-08-03T03:31:33;4.30;;;2.50;;
35835;SDS011;21955;50.580;7.228;2022-08-03T03:34:01;6.57;;;2.95;;
35835;SDS011;21955;50.580;7.228;2022-08-03T03:36:29;4.68;;;3.33;;
35835;SDS011;21955;50.580;7.228;2022-08-03T03:38:56;5.03;;;3.03;;
35835;SDS011;21955;50.580;7.228;2022-08-03T03:41:23;5.63;;;3.20;;
35835;SDS011;21955;50.580;7.228;2022-08-03T03:43:50;4.53;;;2.80;;
35835;SDS011;21955;50.580;7.228;2022-08-03T03:46:19;4.50;;;2.72;;
35835;SDS011;21955;50.580;7.228;2022-08-03T03:48:46;3.88;;;2.50;;
35835;SDS011;21955;50.580;7.228;2022-08-03T03:51:13;4.20;;;2.72;;
35835;SDS011;21955;50.580;7.228;2022-08-03T03:53:48;5.72;;;2.50;;
35835;SDS011;21955;50.580;7.228;2022-08-03T03:56:19;4.88;;;2.50;;
35835;SDS011;21955;50.580;7.228;2022-08-03T03:58:46;4.75;;;2.67;;
35835;SDS011;21955;50.580;7.228;2022-08-03T04:01:13;7.60;;;2.95;;
35835;SDS011;21955;50.580;7.228;2022-08-03T04:03:42;5.10;;;2.70;;
35835;SDS011;21955;50.580;7.228;2022-08-03T04:06:09;5.97;;;3.10;;
35835;SDS011;21955;50.580;7.228;2022-08-03T04:08:54;5.53;;;3.10;;
35835;SDS011;21955;50.580;7.228;2022-08-03T04:11:38;6.30;;;2.92;;
35835;SDS011;21955;50.580;7.228;2022-08-03T04:14:07;8.77;;;3.13;;
35835;SDS011;21955;50.580;7.228;2022-08-03T04:16:36;5.30;;;2.97;;
35835;SDS011;21955;50.580;7.228;2022-08-03T04:19:06;4.78;;;2.80;;
35835;SDS011;21955;50.580;7.228;2022-08-03T04:21:34;5.95;;;2.55;;
35835;SDS011;21955;50.580;7.228;2022-08-03T04:24:03;6.63;;;2.97;;
35835;SDS011;21955;50.580;7.228;2022-08-03T04:26:33;4.95;;;2.90;;
35835;SDS011;21955;50.580;7.228;2022-08-03T04:29:02;5.20;;;2.90;;
35835;SDS011;21955;50.580;7.228;2022-08-03T04:31:30;6.20;;;2.92;;
35835;SDS011;21955;50.580;7.228;2022-08-03T04:33:57;3.40;;;2.42;;
35835;SDS011;21955;50.580;7.228;2022-08-03T04:36:26;4.33;;;2.43;;
35835;SDS011;21955;50.580;7.228;2022-08-03T04:38:58;4.93;;;2.78;;
35835;SDS011;21955;50.580;7.228;2022-08-03T04:41:26;3.80;;;2.70;;
35835;SDS011;21955;50.580;7.228;2022-08-03T04:43:54;4.60;;;2.60;;
35835;SDS011;21955;50.580;7.228;2022-08-03T04:46:22;6.28;;;2.72;;
35835;SDS011;21955;50.580;7.228;2022-08-03T04:48:49;5.00;;;2.78;;
35835;SDS011;21955;50.580;7.228;2022-08-03T04:51:16;6.50;;;2.70;;
35835;SDS011;21955;50.580;7.228;2022-08-03T04:53:45;5.60;;;3.13;;
35835;SDS011;21955;50.580;7.228;2022-08-03T04:56:12;3.60;;;2.50;;
35835;SDS011;21955;50.580;7.228;2022-08-03T04:58:39;5.40;;;2.90;;
35835;SDS011;21955;50.580;7.228;2022-08-03T05:01:06;3.85;;;2.50;;
35835;SDS011;21955;50.580;7.228;2022-08-03T05:03:33;3.72;;;2.70;;
35835;SDS011;21955;50.580;7.228;2022-08-03T05:06:00;6.38;;;2.97;;
35835;SDS011;21955;50.580;7.228;2022-08-03T05:08:28;4.70;;;2.60;;
35835;SDS011;21955;50.580;7.228;2022-08-03T05:10:56;5.35;;;2.75;;
35835;SDS011;21955;50.580;7.228;2022-08-03T05:13:23;3.50;;;2.70;;
35835;SDS011;21955;50.580;7.228;2022-08-03T05:15:50;7.15;;;2.92;;
35835;SDS011;21955;50.580;7.228;2022-08-03T05:18:17;4.60;;;2.75;;
35835;SDS011;21955;50.580;7.228;2022-08-03T05:20:44;4.32;;;3.00;;
35835;SDS011;21955;50.580;7.228;2022-08-03T05:23:11;4.90;;;2.80;;
35835;SDS011;21955;50.580;7.228;2022-08-03T05:25:38;7.57;;;3.00;;
35835;SDS011;21955;50.580;7.228;2022-08-03T05:28:07;5.55;;;3.20;;
35835;SDS011;21955;50.580;7.228;2022-08-03T05:30:35;5.63;;;3.10;;
35835;SDS011;21955;50.580;7.228;2022-08-03T05:33:02;6.88;;;2.65;;
35835;SDS011;21955;50.580;7.228;2022-08-03T05:35:30;3.35;;;2.45;;
35835;SDS011;21955;50.580;7.228;2022-08-03T05:37:58;7.05;;;2.75;;
35835;SDS011;21955;50.580;7.228;2022-08-03T05:40:26;5.35;;;2.72;;
35835;SDS011;21955;50.580;7.228;2022-08-03T05:42:53;4.30;;;2.67;;
35835;SDS011;21955;50.580;7.228;2022-08-03T05:45:21;9.13;;;2.88;;
35835;SDS011;21955;50.580;7.228;2022-08-03T05:47:48;5.15;;;2.40;;
35835;SDS011;21955;50.580;7.228;2022-08-03T05:50:16;6.28;;;2.80;;
35835;SDS011;21955;50.580;7.228;2022-08-03T05:52:43;4.88;;;2.42;;
35835;SDS011;21955;50.580;7.228;2022-08-03T05:55:10;8.43;;;2.67;;
35835;SDS011;21955;50.580;7.228;2022-08-03T05:57:38;6.80;;;2.90;;
35835;SDS011;21955;50.580;7.228;2022-08-03T06:00:07;7.00;;;2.70;;
35835;SDS011;21955;50.580;7.228;2022-08-03T06:02:36;7.18;;;2.90;;
35835;SDS011;21955;50.580;7.228;2022-08-03T06:05:03;6.55;;;2.42;;
35835;SDS011;21955;50.580;7.228;2022-08-03T06:07:30;5.18;;;2.65;;
35835;SDS011;21955;50.580;7.228;2022-08-03T06:09:57;8.27;;;3.03;;
35835;SDS011;21955;50.580;7.228;2022-08-03T06:12:26;6.55;;;2.53;;
35835;SDS011;21955;50.580;7.228;2022-08-03T06:14:53;4.20;;;2.50;;
35835;SDS011;21955;50.580;7.228;2022-08-03T06:17:20;5.95;;;2.65;;
35835;SDS011;21955;50.580;7.228;2022-08-03T06:19:48;6.55;;;2.72;;
35835;SDS011;21955;50.580;7.228;2022-08-03T06:22:17;5.50;;;2.67;;
35835;SDS011;21955;50.580;7.228;2022-08-03T06:24:44;8.23;;;2.80;;
35835;SDS011;21955;50.580;7.228;2022-08-03T06:27:11;5.10;;;2.65;;
35835;SDS011;21955;50.580;7.228;2022-08-03T06:29:38;5.53;;;2.63;;
35835;SDS011;21955;50.580;7.228;2022-08-03T06:32:05;4.38;;;2.70;;
35835;SDS011;21955;50.580;7.228;2022-08-03T06:34:32;3.05;;;2.50;;
35835;SDS011;21955;50.580;7.228;2022-08-03T06:37:01;7.75;;;2.80;;
35835;SDS011;21955;50.580;7.228;2022-08-03T06:39:28;9.50;;;2.80;;
35835;SDS011;21955;50.580;7.228;2022-08-03T06:41:55;5.78;;;2.40;;
35835;SDS011;21955;50.580;7.228;2022-08-03T06:44:22;4.75;;;2.65;;
35835;SDS011;21955;50.580;7.228;2022-08-03T06:46:49;5.93;;;2.78;;
35835;SDS011;21955;50.580;7.228;2022-08-03T06:49:17;6.30;;;2.70;;
35835;SDS011;21955;50.580;7.228;2022-08-03T06:51:44;4.30;;;2.60;;
35835;SDS011;21955;50.580;7.228;2022-08-03T06:54:12;5.75;;;2.80;;
35835;SDS011;21955;50.580;7.228;2022-08-03T06:56:39;4.63;;;2.70;;
35835;SDS011;21955;50.580;7.228;2022-08-03T06:59:06;7.97;;;2.75;;
35835;SDS011;21955;50.580;7.228;2022-08-03T07:01:33;5.75;;;2.60;;
35835;SDS011;21955;50.580;7.228;2022-08-03T07:04:00;3.90;;;2.47;;
35835;SDS011;21955;50.580;7.228;2022-08-03T07:06:27;6.13;;;2.53;;
35835;SDS011;21955;50.580;7.228;2022-08-03T07:08:56;5.95;;;2.47;;
35835;SDS011;21955;50.580;7.228;2022-08-03T07:11:25;6.05;;;2.80;;
35835;SDS011;21955;50.580;7.228;2022-08-03T07:13:52;4.97;;;2.70;;
35835;SDS011;21955;50.580;7.228;2022-08-03T07:16:20;7.05;;;2.72;;
35835;SDS011;21955;50.580;7.228;2022-08-03T07:18:47;4.78;;;2.50;;
35835;SDS011;21955;50.580;7.228;2022-08-03T07:21:14;6.60;;;2.58;;
35835;SDS011;21955;50.580;7.228;2022-08-03T07:23:41;5.10;;;2.53;;
35835;SDS011;21955;50.580;7.228;2022-08-03T07:26:08;4.85;;;2.83;;
35835;SDS011;21955;50.580;7.228;2022-08-03T07:28:37;5.55;;;2.72;;
35835;SDS011;21955;50.580;7.228;2022-08-03T07:31:04;5.07;;;2.83;;
35835;SDS011;21955;50.580;7.228;2022-08-03T07:33:31;5.53;;;2.60;;
35835;SDS011;21955;50.580;7.228;2022-08-03T07:35:59;3.72;;;2.33;;
35835;SDS011;21955;50.580;7.228;2022-08-03T07:38:26;4.72;;;2.67;;
35835;SDS011;21955;50.580;7.228;2022-08-03T07:40:53;5.72;;;2.45;;
35835;SDS011;21955;50.580;7.228;2022-08-03T07:43:21;4.07;;;2.35;;
35835;SDS011;21955;50.580;7.228;2022-08-03T07:45:49;4.95;;;2.40;;
35835;SDS011;21955;50.580;7.228;2022-08-03T07:48:16;4.20;;;2.60;;
35835;SDS011;21955;50.580;7.228;2022-08-03T07:50:44;4.60;;;2.60;;
35835;SDS011;21955;50.580;7.228;2022-08-03T07:53:11;4.10;;;2.38;;
35835;SDS011;21955;50.580;7.228;2022-08-03T07:55:38;4.75;;;2.42;;
35835;SDS011;21955;50.580;7.228;2022-08-03T07:58:06;3.92;;;2.47;;
35835;SDS011;21955;50.580;7.228;2022-08-03T08:00:36;8.57;;;2.13;;
35835;SDS011;21955;50.580;7.228;2022-08-03T08:03:04;5.77;;;2.40;;
35835;SDS011;21955;50.580;7.228;2022-08-03T08:05:32;6.50;;;2.65;;
35835;SDS011;21955;50.580;7.228;2022-08-03T08:07:59;3.87;;;2.20;;
35835;SDS011;21955;50.580;7.228;2022-08-03T08:10:26;5.53;;;2.58;;
35835;SDS011;21955;50.580;7.228;2022-08-03T08:12:53;5.33;;;2.30;;
35835;SDS011;21955;50.580;7.228;2022-08-03T08:15:20;4.77;;;2.30;;
35835;SDS011;21955;50.580;7.228;2022-08-03T08:17:49;7.65;;;2.10;;
35835;SDS011;21955;50.580;7.228;2022-08-03T08:20:18;4.50;;;2.27;;
35835;SDS011;21955;50.580;7.228;2022-08-03T08:22:46;5.88;;;2.30;;
35835;SDS011;21955;50.580;7.228;2022-08-03T08:25:13;3.92;;;2.20;;
35835;SDS011;21955;50.580;7.228;2022-08-03T08:27:41;4.13;;;2.33;;
35835;SDS011;21955;50.580;7.228;2022-08-03T08:30:08;4.78;;;2.20;;
35835;SDS011;21955;50.580;7.228;2022-08-03T08:32:35;8.57;;;2.30;;
35835;SDS011;21955;50.580;7.228;2022-08-03T08:35:03;4.35;;;2.10;;
35835;SDS011;21955;50.580;7.228;2022-08-03T08:37:32;5.97;;;2.22;;
35835;SDS011;21955;50.580;7.228;2022-08-03T08:39:59;3.55;;;2.10;;
35835;SDS011;21955;50.580;7.228;2022-08-03T08:42:26;4.65;;;2.10;;
35835;SDS011;21955;50.580;7.228;2022-08-03T08:44:53;3.87;;;2.10;;
35835;SDS011;21955;50.580;7.228;2022-08-03T08:47:21;4.00;;;2.22;;
35835;SDS011;21955;50.580;7.228;2022-08-03T08:49:49;4.55;;;2.00;;
35835;SDS011;21955;50.580;7.228;2022-08-03T08:52:18;4.47;;;2.22;;
35835;SDS011;21955;50.580;7.228;2022-08-03T08:54:49;4.47;;;2.00;;
35835;SDS011;21955;50.580;7.228;2022-08-03T08:57:16;4.07;;;1.83;;
35835;SDS011;21955;50.580;7.228;2022-08-03T08:59:44;3.47;;;1.80;;
35835;SDS011;21955;50.580;7.228;2022-08-03T09:02:11;4.72;;;2.05;;
35835;SDS011;21955;50.580;7.228;2022-08-03T09:04:38;4.40;;;2.00;;
35835;SDS011;21955;50.580;7.228;2022-08-03T09:07:06;4.18;;;1.90;;
35835;SDS011;21955;50.580;7.228;2022-08-03T09:09:33;5.43;;;1.90;;
35835;SDS011;21955;50.580;7.228;2022-08-03T09:12:02;3.03;;;2.03;;
35835;SDS011;21955;50.580;7.228;2022-08-03T09:14:29;11.02;;;3.35;;
35835;SDS011;21955;50.580;7.228;2022-08-03T09:17:02;6.97;;;2.60;;
35835;SDS011;21955;50.580;7.228;2022-08-03T09:19:35;8.18;;;4.18;;
35835;SDS011;21955;50.580;7.228;2022-08-03T09:22:06;6.90;;;3.65;;
35835;SDS011;21955;50.580;7.228;2022-08-03T09:24:35;12.35;;;5.68;;
35835;SDS011;21955;50.580;7.228;2022-08-03T09:27:05;5.10;;;3.25;;
35835;SDS011;21955;50.580;7.228;2022-08-03T09:29:32;4.95;;;2.78;;
35835;SDS011;21955;50.580;7.228;2022-08-03T09:32:00;6.75;;;2.25;;
35835;SDS011;21955;50.580;7.228;2022-08-03T09:34:27;2.85;;;1.50;;
35835;SDS011;21955;50.580;7.228;2022-08-03T09:36:54;2.10;;;1.50;;
35835;SDS011;21955;50.580;7.228;2022-08-03T09:39:22;3.90;;;1.83;;
35835;SDS011;21955;50.580;7.228;2022-08-03T09:42:03;3.77;;;1.93;;
35835;SDS011;21955;50.580;7.228;2022-08-03T09:44:34;3.17;;;1.60;;
35835;SDS011;21955;50.580;7.228;2022-08-03T09:47:02;2.40;;;1.60;;
35835;SDS011;21955;50.580;7.228;2022-08-03T09:49:29;4.07;;;1.60;;
35835;SDS011;21955;50.580;7.228;2022-08-03T09:51:57;2.53;;;1.83;;
35835;SDS011;21955;50.580;7.228;2022-08-03T09:54:26;4.85;;;1.60;;
35835;SDS011;21955;50.580;7.228;2022-08-03T09:56:53;2.55;;;1.60;;
35835;SDS011;21955;50.580;7.228;2022-08-03T09:59:24;1.73;;;1.40;;
35835;SDS011;21955;50.580;7.228;2022-08-03T10:01:53;5.25;;;2.10;;
35835;SDS011;21955;50.580;7.228;2022-08-03T10:04:20;4.05;;;1.73;;
35835;SDS011;21955;50.580;7.228;2022-08-03T10:09:29;3.92;;;1.80;;
35835;SDS011;21955;50.580;7.228;2022-08-03T10:11:56;4.55;;;1.98;;
35835;SDS011;21955;50.580;7.228;2022-08-03T10:14:24;4.95;;;2.03;;
35835;SDS011;21955;50.580;7.228;2022-08-03T10:16:57;5.00;;;2.95;;
35835;SDS011;21955;50.580;7.228;2022-08-03T10:19:24;4.32;;;1.70;;
35835;SDS011;21955;50.580;7.228;2022-08-03T10:21:52;1.98;;;1.60;;
35835;SDS011;21955;50.580;7.228;2022-08-03T10:24:23;2.10;;;1.50;;
35835;SDS011;21955;50.580;7.228;2022-08-03T10:26:50;3.10;;;1.58;;
35835;SDS011;21955;50.580;7.228;2022-08-03T10:29:19;4.90;;;1.60;;
35835;SDS011;21955;50.580;7.228;2022-08-03T10:31:48;3.40;;;1.60;;
35835;SDS011;21955;50.580;7.228;2022-08-03T10:34:18;4.60;;;1.40;;
35835;SDS011;21955;50.580;7.228;2022-08-03T10:36:48;2.25;;;1.70;;
35835;SDS011;21955;50.580;7.228;2022-08-03T10:39:17;1.67;;;1.40;;
35835;SDS011;21955;50.580;7.228;2022-08-03T10:41:46;2.55;;;1.70;;
35835;SDS011;21955;50.580;7.228;2022-08-03T10:44:16;2.80;;;1.50;;
35835;SDS011;21955;50.580;7.228;2022-08-03T10:46:44;2.27;;;1.60;;
35835;SDS011;21955;50.580;7.228;2022-08-03T10:49:12;2.13;;;1.70;;
35835;SDS011;21955;50.580;7.228;2022-08-03T10:51:41;2.97;;;1.75;;
35835;SDS011;21955;50.580;7.228;2022-08-03T10:56:50;3.40;;;1.70;;
35835;SDS011;21955;50.580;7.228;2022-08-03T11:02:20;3.00;;;1.43;;
35835;SDS011;21955;50.580;7.228;2022-08-03T11:04:47;2.63;;;1.60;;
35835;SDS011;21955;50.580;7.228;2022-08-03T11:07:36;2.40;;;1.70;;
35835;SDS011;21955;50.580;7.228;2022-08-03T11:10:03;1.88;;;1.40;;
35835;SDS011;21955;50.580;7.228;2022-08-03T11:12:31;4.47;;;1.65;;
35835;SDS011;21955;50.580;7.228;2022-08-03T11:14:59;3.40;;;1.70;;
35835;SDS011;21955;50.580;7.228;2022-08-03T11:17:27;1.95;;;1.50;;
35835;SDS011;21955;50.580;7.228;2022-08-03T11:19:54;3.97;;;1.83;;
35835;SDS011;21955;50.580;7.228;2022-08-03T11:22:21;2.03;;;1.33;;
35835;SDS011;21955;50.580;7.228;2022-08-03T11:24:56;4.80;;;1.75;;
35835;SDS011;21955;50.580;7.228;2022-08-03T11:27:24;3.08;;;1.60;;
35835;SDS011;21955;50.580;7.228;2022-08-03T11:29:55;3.40;;;1.73;;
35835;SDS011;21955;50.580;7.228;2022-08-03T11:35:10;2.60;;;1.60;;
35835;SDS011;21955;50.580;7.228;2022-08-03T11:38:00;2.30;;;1.48;;
35835;SDS011;21955;50.580;7.228;2022-08-03T11:40:36;3.03;;;1.60;;
35835;SDS011;21955;50.580;7.228;2022-08-03T11:43:03;1.98;;;1.38;;
35835;SDS011;21955;50.580;7.228;2022-08-03T11:45:31;3.50;;;1.40;;
35835;SDS011;21955;50.580;7.228;2022-08-03T11:47:59;2.80;;;1.60;;
35835;SDS011;21955;50.580;7.228;2022-08-03T11:50:34;2.47;;;1.60;;
35835;SDS011;21955;50.580;7.228;2022-08-03T11:53:02;2.10;;;1.40;;
35835;SDS011;21955;50.580;7.228;2022-08-03T11:55:31;4.05;;;1.55;;
35835;SDS011;21955;50.580;7.228;2022-08-03T11:57:59;3.80;;;1.55;;
35835;SDS011;21955;50.580;7.228;2022-08-03T12:00:27;2.80;;;1.70;;
35835;SDS011;21955;50.580;7.228;2022-08-03T12:02:55;3.10;;;1.50;;
35835;SDS011;21955;50.580;7.228;2022-08-03T12:05:31;3.70;;;2.00;;
35835;SDS011;21955;50.580;7.228;2022-08-03T12:07:58;4.47;;;2.40;;
35835;SDS011;21955;50.580;7.228;2022-08-03T12:10:26;5.23;;;1.80;;
35835;SDS011;21955;50.580;7.228;2022-08-03T12:12:55;3.10;;;1.70;;
35835;SDS011;21955;50.580;7.228;2022-08-03T12:15:27;2.80;;;1.40;;
35835;SDS011;21955;50.580;7.228;2022-08-03T12:29:23;2.72;;;1.60;;
35835;SDS011;21955;50.580;7.228;2022-08-03T12:31:52;2.28;;;1.60;;
35835;SDS011;21955;50.580;7.228;2022-08-03T12:34:19;2.38;;;1.70;;
35835;SDS011;21955;50.580;7.228;2022-08-03T12:36:49;2.88;;;1.60;;
35835;SDS011;21955;50.580;7.228;2022-08-03T12:39:16;3.33;;;1.65;;
35835;SDS011;21955;50.580;7.228;2022-08-03T12:41:46;3.65;;;1.70;;
35835;SDS011;21955;50.580;7.228;2022-08-03T12:44:28;3.53;;;1.70;;
35835;SDS011;21955;50.580;7.228;2022-08-03T12:46:57;4.43;;;1.80;;
35835;SDS011;21955;50.580;7.228;2022-08-03T12:49:24;2.78;;;1.58;;
35835;SDS011;21955;50.580;7.228;2022-08-03T12:51:56;3.22;;;1.65;;
35835;SDS011;21955;50.580;7.228;2022-08-03T12:54:24;3.73;;;1.57;;
35835;SDS011;21955;50.580;7.228;2022-08-03T12:56:58;3.38;;;1.42;;
35835;SDS011;21955;50.580;7.228;2022-08-03T12:59:26;2.58;;;1.50;;
35835;SDS011;21955;50.580;7.228;2022-08-03T13:01:53;3.08;;;1.38;;
35835;SDS011;21955;50.580;7.228;2022-08-03T13:04:30;1.70;;;1.35;;
35835;SDS011;21955;50.580;7.228;2022-08-03T13:06:58;3.22;;;1.50;;
35835;SDS011;21955;50.580;7.228;2022-08-03T13:09:25;2.45;;;1.48;;
35835;SDS011;21955;50.580;7.228;2022-08-03T13:12:05;2.75;;;1.45;;
35835;SDS011;21955;50.580;7.228;2022-08-03T13:14:33;4.55;;;1.48;;
35835;SDS011;21955;50.580;7.228;2022-08-03T13:17:00;3.37;;;1.40;;
35835;SDS011;21955;50.580;7.228;2022-08-03T13:19:29;6.30;;;1.50;;
35835;SDS011;21955;50.580;7.228;2022-08-03T13:21:57;2.08;;;1.30;;
35835;SDS011;21955;50.580;7.228;2022-08-03T13:24:24;5.88;;;2.00;;
35835;SDS011;21955;50.580;7.228;2022-08-03T13:26:51;3.13;;;1.60;;
35835;SDS011;21955;50.580;7.228;2022-08-03T13:29:18;3.63;;;1.65;;
35835;SDS011;21955;50.580;7.228;2022-08-03T13:31:45;2.03;;;1.55;;
35835;SDS011;21955;50.580;7.228;2022-08-03T13:34:12;2.25;;;1.50;;
35835;SDS011;21955;50.580;7.228;2022-08-03T13:36:40;2.60;;;1.40;;
35835;SDS011;21955;50.580;7.228;2022-08-03T13:39:08;2.58;;;1.23;;
35835;SDS011;21955;50.580;7.228;2022-08-03T13:41:35;3.38;;;1.58;;
35835;SDS011;21955;50.580;7.228;2022-08-03T13:44:02;3.20;;;1.60;;
35835;SDS011;21955;50.580;7.228;2022-08-03T13:46:29;3.00;;;1.50;;
35835;SDS011;21955;50.580;7.228;2022-08-03T13:48:56;2.90;;;1.40;;
35835;SDS011;21955;50.580;7.228;2022-08-03T13:51:23;2.53;;;1.50;;
35835;SDS011;21955;50.580;7.228;2022-08-03T13:53:52;6.20;;;1.85;;
35835;SDS011;21955;50.580;7.228;2022-08-03T13:56:19;2.67;;;1.40;;
35835;SDS011;21955;50.580;7.228;2022-08-03T13:58:46;2.53;;;1.60;;
35835;SDS011;21955;50.580;7.228;2022-08-03T14:01:13;8.30;;;2.40;;
35835;SDS011;21955;50.580;7.228;2022-08-03T14:03:40;2.97;;;1.52;;
35835;SDS011;21955;50.580;7.228;2022-08-03T14:06:07;3.63;;;1.60;;
35835;SDS011;21955;50.580;7.228;2022-08-03T14:08:34;3.00;;;1.40;;
35835;SDS011;21955;50.580;7.228;2022-08-03T14:11:03;4.40;;;1.63;;
35835;SDS011;21955;50.580;7.228;2022-08-03T14:13:31;2.00;;;1.23;;
35835;SDS011;21955;50.580;7.228;2022-08-03T14:15:58;3.00;;;1.30;;
35835;SDS011;21955;50.580;7.228;2022-08-03T14:18:25;3.20;;;1.50;;
35835;SDS011;21955;50.580;7.228;2022-08-03T14:20:52;2.90;;;1.47;;
35835;SDS011;21955;50.580;7.228;2022-08-03T14:23:19;1.90;;;1.50;;
35835;SDS011;21955;50.580;7.228;2022-08-03T14:25:46;2.72;;;1.60;;
35835;SDS011;21955;50.580;7.228;2022-08-03T14:28:15;3.80;;;1.70;;
35835;SDS011;21955;50.580;7.228;2022-08-03T14:30:42;2.75;;;1.70;;
35835;SDS011;21955;50.580;7.228;2022-08-03T14:33:09;3.35;;;1.50;;
35835;SDS011;21955;50.580;7.228;2022-08-03T14:35:36;3.40;;;1.73;;
35835;SDS011;21955;50.580;7.228;2022-08-03T14:38:03;3.40;;;1.60;;
35835;SDS011;21955;50.580;7.228;2022-08-03T14:40:30;3.67;;;1.52;;
35835;SDS011;21955;50.580;7.228;2022-08-03T14:42:57;2.47;;;1.50;;
35835;SDS011;21955;50.580;7.228;2022-08-03T14:45:25;2.37;;;1.53;;
35835;SDS011;21955;50.580;7.228;2022-08-03T14:47:53;3.60;;;1.53;;
35835;SDS011;21955;50.580;7.228;2022-08-03T14:50:21;1.90;;;1.52;;
35835;SDS011;21955;50.580;7.228;2022-08-03T14:52:49;2.60;;;1.60;;
35835;SDS011;21955;50.580;7.228;2022-08-03T14:55:16;2.25;;;1.60;;
35835;SDS011;21955;50.580;7.228;2022-08-03T14:57:43;4.03;;;1.60;;
35835;SDS011;21955;50.580;7.228;2022-08-03T15:00:11;5.75;;;1.55;;
35835;SDS011;21955;50.580;7.228;2022-08-03T15:02:39;2.93;;;1.97;;
35835;SDS011;21955;50.580;7.228;2022-08-03T15:05:07;4.13;;;1.70;;
35835;SDS011;21955;50.580;7.228;2022-08-03T15:07:36;2.85;;;1.77;;
35835;SDS011;21955;50.580;7.228;2022-08-03T15:10:03;2.05;;;1.48;;
35835;SDS011;21955;50.580;7.228;2022-08-03T15:12:31;2.35;;;1.50;;
35835;SDS011;21955;50.580;7.228;2022-08-03T15:14:58;6.75;;;2.60;;
35835;SDS011;21955;50.580;7.228;2022-08-03T15:17:26;2.60;;;1.70;;